Time;durP1;ratioP1;P1;durP2;ratioP2;P2;SDS_P1;SDS_P2;PMS_P1;PMS_P2;Temp;Humidity;BMP_temperature;BMP_pressure;BME280_temperature;BME280_humidity;BME280_pressure;Samples;Min_cycle;Max_cycle;Signal;HPM_P1;HPM_P2
2022/08/10 00:00:35;;;;;;;6.40;3.90;;;;;;;15.58;75.58;101759.34;1737352;81;26492;-74
2022/08/10 00:03:06;;;;;;;4.83;3.30;;;;;;;15.58;75.71;101762.05;1748579;81;26828;-74
2022/08/10 00:05:33;;;;;;;5.25;4.12;;;;;;;15.55;75.75;101765.63;1745394;81;25799;-73
2022/08/10 00:07:59;;;;;;;7.50;4.08;;;;;;;15.50;75.67;101759.98;1711800;82;26531;-76
2022/08/10 00:10:26;;;;;;;8.40;3.90;;;;;;;15.48;75.80;101760.18;1696080;82;25790;-74
2022/08/10 00:12:53;;;;;;;4.92;3.77;;;;;;;15.48;75.79;101755.28;1695602;82;26132;-74
2022/08/10 00:15:21;;;;;;;5.00;3.65;;;;;;;15.48;75.83;101757.48;1714950;82;27460;-73
2022/08/10 00:17:48;;;;;;;8.43;3.62;;;;;;;15.51;76.02;101756.23;1710299;82;26526;-73
2022/08/10 00:20:15;;;;;;;4.70;3.42;;;;;;;15.51;76.01;101758.43;1659857;84;26196;-73
2022/08/10 00:22:42;;;;;;;6.92;3.92;;;;;;;15.51;75.99;101756.23;1715492;82;25780;-75
2022/08/10 00:25:09;;;;;;;5.10;3.83;;;;;;;15.51;75.89;101757.59;1708187;82;26031;-74
2022/08/10 00:27:35;;;;;;;5.42;4.20;;;;;;;15.50;75.96;101754.58;1705940;82;27531;-75
2022/08/10 00:30:04;;;;;;;4.80;3.83;;;;;;;15.49;76.02;101751.03;1714838;82;25826;-75
2022/08/10 00:32:30;;;;;;;6.28;4.15;;;;;;;15.50;76.20;101754.58;1706998;82;26558;-74
2022/08/10 00:34:58;;;;;;;4.55;4.00;;;;;;;15.49;76.05;101754.24;1733464;81;25949;-74
2022/08/10 00:37:24;;;;;;;5.67;4.70;;;;;;;15.48;76.53;101756.64;1724154;82;25936;-74
2022/08/10 00:39:51;;;;;;;7.05;4.33;;;;;;;15.46;76.57;101755.99;1721808;82;28317;-75
2022/08/10 00:42:17;;;;;;;8.18;4.00;;;;;;;15.41;76.34;101751.97;1710117;82;25925;-74
2022/08/10 00:44:48;;;;;;;6.00;4.53;;;;;;;15.39;76.43;101745.92;1706637;82;25844;-74
2022/08/10 00:47:16;;;;;;;5.40;4.17;;;;;;;15.31;76.38;101740.61;1675688;84;25961;-74
2022/08/10 00:49:42;;;;;;;4.83;3.90;;;;;;;15.25;76.50;101744.08;1714748;82;26585;-75
2022/08/10 00:52:14;;;;;;;7.40;5.15;;;;;;;15.22;76.30;101738.23;1707317;82;28333;-74
2022/08/10 00:54:42;;;;;;;7.17;4.30;;;;;;;15.17;76.26;101746.89;1739793;81;26738;-74
2022/08/10 00:57:11;;;;;;;5.47;3.75;;;;;;;15.14;76.20;101745.09;1737990;81;25851;-73
2022/08/10 00:59:38;;;;;;;5.62;4.35;;;;;;;15.09;76.30;101744.31;1740627;80;26565;-74
2022/08/10 01:02:05;;;;;;;8.30;4.80;;;;;;;15.07;76.38;101745.02;1740294;81;25752;-74
2022/08/10 01:04:31;;;;;;;6.87;4.72;;;;;;;15.06;76.46;101747.88;1741311;80;28340;-75
2022/08/10 01:07:26;;;;;;;5.53;4.92;;;;;;;15.06;76.59;101740.62;1741222;81;26281;-74
2022/08/10 01:10:16;;;;;;;6.45;4.47;;;;;;;15.07;77.04;101746.86;1733964;81;25911;-74
2022/08/10 01:13:09;;;;;;;9.80;4.67;;;;;;;15.03;77.01;101746.92;1737849;81;25800;-74
2022/08/10 01:15:55;;;;;;;7.45;4.25;;;;;;;14.98;76.79;101744.78;1736595;81;25873;-74
2022/08/10 01:18:54;;;;;;;6.87;3.75;;;;;;;14.93;76.86;101741.80;1739274;81;27534;-74
2022/08/10 01:21:50;;;;;;;5.22;4.22;;;;;;;14.90;76.97;101745.39;1714135;82;25791;-75
2022/08/10 01:25:03;;;;;;;7.72;4.15;;;;;;;14.87;76.85;101744.41;1689436;83;25847;-73
2022/08/10 01:28:07;;;;;;;4.45;4.00;;;;;;;14.86;76.93;101749.49;1677292;83;25860;-74
2022/08/10 01:30:35;;;;;;;6.80;3.60;;;;;;;14.83;76.91;101751.20;1674226;83;25819;-74
2022/08/10 01:33:12;;;;;;;7.30;3.60;;;;;;;14.80;77.08;101752.41;1708274;82;27633;-75
2022/08/10 01:35:51;;;;;;;5.22;3.65;;;;;;;14.76;76.95;101752.95;1706888;82;26060;-73
2022/08/10 01:38:23;;;;;;;4.70;4.20;;;;;;;14.71;76.97;101750.00;1712599;82;25785;-75
2022/08/10 01:40:54;;;;;;;6.67;4.15;;;;;;;14.66;77.02;101748.70;1707519;82;25858;-73
2022/08/10 01:43:22;;;;;;;4.75;4.10;;;;;;;14.63;76.99;101753.11;1707119;82;25971;-75
2022/08/10 01:45:54;;;;;;;7.12;4.10;;;;;;;14.62;77.15;101757.34;1715935;82;28351;-75
2022/08/10 01:48:35;;;;;;;5.20;3.55;;;;;;;14.60;77.16;101752.65;1717209;82;25776;-75
2022/08/10 01:51:22;;;;;;;;;;;;;;;14.55;77.20;101753.20;1716178;82;25867;-75
2022/08/10 01:54:05;;;;;;;6.05;3.42;;;;;;;14.50;77.13;101760.15;1683004;83;25799;-74
2022/08/10 01:56:36;;;;;;;4.45;3.60;;;;;;;14.42;77.31;101763.77;1737680;81;25782;-74
2022/08/10 01:59:13;;;;;;;5.08;3.92;;;;;;;14.41;77.32;101763.44;1738366;81;27456;-77
2022/08/10 02:01:57;;;;;;;5.28;3.92;;;;;;;14.41;77.31;101771.52;1714646;82;25842;-73
2022/08/10 02:04:26;;;;;;;4.60;4.12;;;;;;;14.41;77.34;101763.44;1708102;81;25983;-74
2022/08/10 02:06:55;;;;;;;5.47;3.95;;;;;;;14.42;77.44;101769.16;1701059;82;26536;-74
2022/08/10 02:09:29;;;;;;;4.95;4.15;;;;;;;14.44;77.44;101767.62;1713815;82;26638;-74
2022/08/10 02:12:06;;;;;;;5.62;4.65;;;;;;;14.45;77.50;101770.16;1707306;82;28181;-74
2022/08/10 02:14:41;;;;;;;5.83;4.30;;;;;;;14.45;77.61;101765.27;1705794;81;25869;-74
2022/08/10 02:17:12;;;;;;;6.35;4.20;;;;;;;14.46;77.65;101766.93;1709565;82;26448;-74
2022/08/10 02:19:40;;;;;;;8.35;5.15;;;;;;;14.44;77.84;101768.97;1735939;81;25833;-74
2022/08/10 02:22:08;;;;;;;4.85;3.90;;;;;;;14.44;77.79;101764.93;1740304;81;25798;-74
2022/08/10 02:24:38;;;;;;;5.50;4.47;;;;;;;14.45;77.75;101769.31;1737215;80;28021;-74
2022/08/10 02:27:05;;;;;;;6.20;4.33;;;;;;;14.45;77.91;101767.97;1740858;81;25863;-74
2022/08/10 02:29:33;;;;;;;7.12;4.70;;;;;;;14.46;77.91;101764.23;1738273;81;25750;-73
2022/08/10 02:31:59;;;;;;;5.83;4.55;;;;;;;14.48;78.01;101767.08;1744339;81;25799;-74
2022/08/10 02:34:27;;;;;;;8.13;4.03;;;;;;;14.50;77.91;101770.93;1737469;79;26001;-74
2022/08/10 02:36:56;;;;;;;6.95;4.45;;;;;;;14.49;77.93;101762.03;1718045;82;28299;-74
2022/08/10 02:39:25;;;;;;;6.65;4.67;;;;;;;14.46;77.84;101763.73;1738307;81;25938;-74
2022/08/10 02:42:14;;;;;;;9.00;4.67;;;;;;;14.44;77.93;101765.77;1738725;81;25766;-74
2022/08/10 02:44:49;;;;;;;7.08;4.47;;;;;;;14.42;77.91;101768.33;1744808;79;25888;-74
2022/08/10 02:47:36;;;;;;;6.00;4.97;;;;;;;14.40;77.92;101769.02;1741868;81;25788;-73
2022/08/10 02:50:10;;;;;;;5.65;4.62;;;;;;;14.35;77.89;101771.44;1716559;82;27491;-74
2022/08/10 02:52:44;;;;;;;7.00;4.37;;;;;;;14.31;77.69;101775.00;1709662;82;26506;-74
2022/08/10 02:55:19;;;;;;;7.47;4.37;;;;;;;14.25;77.72;101778.89;1720531;81;25857;-75
2022/08/10 02:57:50;;;;;;;7.12;4.03;;;;;;;14.19;77.75;101776.93;1709216;82;26447;-73
2022/08/10 03:00:17;;;;;;;4.28;3.87;;;;;;;14.14;77.82;101773.93;1723721;82;26057;-73
2022/08/10 03:02:46;;;;;;;7.42;3.83;;;;;;;14.11;77.95;101771.12;1725740;81;28254;-75
2022/08/10 03:05:16;;;;;;;5.55;4.90;;;;;;;14.09;77.88;101783.09;1718518;81;25779;-74
2022/08/10 03:08:02;;;;;;;8.18;5.17;;;;;;;14.05;77.80;101777.20;1715070;82;26140;-74
2022/08/10 03:10:33;;;;;;;7.05;4.60;;;;;;;14.02;77.78;101772.70;1726543;82;26640;-75
2022/08/10 03:13:02;;;;;;;8.97;5.50;;;;;;;14.02;77.91;101770.84;1682265;83;25791;-74
2022/08/10 03:15:32;;;;;;;7.90;6.40;;;;;;;14.04;78.06;101785.47;1712574;82;28544;-74
2022/08/10 03:18:00;;;;;;;9.70;8.35;;;;;;;14.03;78.19;101781.12;1708582;82;25826;-73
2022/08/10 03:20:31;;;;;;;7.58;6.45;;;;;;;14.01;78.10;101779.94;1711489;82;25717;-74
2022/08/10 03:22:59;;;;;;;11.20;6.35;;;;;;;13.98;78.13;101785.70;1714939;82;27051;-74
2022/08/10 03:25:26;;;;;;;7.37;5.33;;;;;;;13.95;78.07;101783.35;1738470;81;25912;-74
2022/08/10 03:27:53;;;;;;;8.98;6.95;;;;;;;13.93;78.11;101788.08;1746680;80;28294;-74
2022/08/10 03:30:20;;;;;;;9.93;5.33;;;;;;;13.92;78.14;101783.73;1740573;81;26568;-74
2022/08/10 03:32:48;;;;;;;7.25;4.87;;;;;;;13.89;77.88;101786.77;1741823;81;25796;-74
2022/08/10 03:35:16;;;;;;;5.20;4.33;;;;;;;13.87;78.24;101784.77;1745452;81;25834;-74
2022/08/10 03:37:42;;;;;;;6.40;3.67;;;;;;;13.86;78.02;101792.00;1742853;81;25906;-74
2022/08/10 03:40:09;;;;;;;6.25;3.70;;;;;;;13.81;77.89;101790.88;1710374;82;27450;-73
2022/08/10 03:42:38;;;;;;;5.58;3.37;;;;;;;13.77;78.13;101792.25;1717265;82;25831;-75
2022/08/10 03:45:07;;;;;;;7.17;3.67;;;;;;;13.73;78.15;101785.02;1740653;81;25764;-74
2022/08/10 03:47:38;;;;;;;4.35;3.33;;;;;;;13.72;78.21;101783.86;1721738;81;26547;-74
2022/08/10 03:50:05;;;;;;;;;;;;;;;13.70;78.46;101789.93;1740090;80;25765;-73
2022/08/10 03:52:32;;;;;;;4.28;3.40;;;;;;;13.69;78.53;101789.09;1745479;80;28290;-74
2022/08/10 03:54:59;;;;;;;5.45;3.30;;;;;;;13.66;78.64;101792.66;1744103;81;26459;-74
2022/08/10 03:57:28;;;;;;;6.67;3.60;;;;;;;13.64;78.66;101787.95;1745912;81;25790;-74
2022/08/10 03:59:55;;;;;;;5.90;3.80;;;;;;;13.64;78.69;101790.65;1740302;81;26592;-74
2022/08/10 04:02:22;;;;;;;9.10;4.08;;;;;;;13.67;78.87;101795.66;1742788;81;25889;-75
2022/08/10 04:04:48;;;;;;;5.62;5.05;;;;;;;13.68;79.53;101799.55;1743140;81;28280;-74
2022/08/10 04:07:15;;;;;;;9.60;5.22;;;;;;;13.69;80.19;101797.66;1741146;81;26493;-74
2022/08/10 04:09:41;;;;;;;6.10;5.00;;;;;;;13.71;81.12;101795.63;1742564;81;25828;-74
2022/08/10 04:12:08;;;;;;;8.55;4.95;;;;;;;13.72;81.69;101795.98;1713581;82;26552;-74
2022/08/10 04:14:34;;;;;;;6.30;4.90;;;;;;;13.74;82.00;101802.87;1707235;82;25982;-73
2022/08/10 04:17:00;;;;;;;8.35;5.17;;;;;;;13.76;82.82;101798.64;1712174;82;26912;-75
2022/08/10 04:19:34;;;;;;;6.83;5.78;;;;;;;13.78;83.32;101810.91;1717204;82;26049;-74
2022/08/10 04:22:17;;;;;;;5.25;4.75;;;;;;;13.79;83.67;101811.77;1713279;82;26293;-75
2022/08/10 04:24:47;;;;;;;10.53;5.40;;;;;;;13.83;84.17;101815.77;1743855;81;26592;-73
2022/08/10 04:27:14;;;;;;;8.00;6.08;;;;;;;13.86;84.51;101815.39;1739232;81;26695;-74
2022/08/10 04:29:42;;;;;;;7.35;5.12;;;;;;;13.89;85.07;101820.44;1741558;81;27022;-74
2022/08/10 04:32:12;;;;;;;9.45;5.67;;;;;;;13.93;85.56;101819.91;1742309;81;25783;-74
2022/08/10 04:34:42;;;;;;;10.00;5.67;;;;;;;13.99;85.92;101821.53;1744579;81;26380;-74
2022/08/10 04:37:12;;;;;;;9.25;5.35;;;;;;;14.03;86.26;101816.95;1737282;81;26301;-74
2022/08/10 04:39:38;;;;;;;10.80;6.20;;;;;;;14.09;86.47;101818.96;1740475;81;26543;-74
2022/08/10 04:42:06;;;;;;;9.58;5.28;;;;;;;14.14;86.51;101815.70;1740648;81;27510;-74
2022/08/10 04:44:33;;;;;;;6.67;5.53;;;;;;;14.19;86.90;101818.20;1741203;81;25965;-74
2022/08/10 04:46:59;;;;;;;8.68;5.67;;;;;;;14.26;86.98;101826.41;1742365;81;26674;-74
2022/08/10 04:49:26;;;;;;;6.58;5.50;;;;;;;14.33;87.31;101822.81;1740385;80;25771;-74
2022/08/10 04:51:52;;;;;;;7.80;5.03;;;;;;;14.41;87.72;101821.92;1738600;81;25566;-74
2022/08/10 04:54:18;;;;;;;6.28;5.00;;;;;;;14.46;87.76;101824.39;1741253;81;27435;-74
2022/08/10 04:56:45;;;;;;;6.10;4.70;;;;;;;14.52;88.21;101829.05;1740781;81;26556;-74
2022/08/10 04:59:11;;;;;;;6.92;5.22;;;;;;;14.58;88.49;101826.16;1745329;80;25848;-74
2022/08/10 05:01:40;;;;;;;7.53;5.12;;;;;;;14.65;88.59;101829.27;1740980;81;25785;-75
2022/08/10 05:04:06;;;;;;;8.10;5.62;;;;;;;14.74;88.94;101831.38;1744656;81;25316;-74
2022/08/10 05:06:32;;;;;;;7.53;5.47;;;;;;;14.81;89.23;101830.97;1737347;81;27463;-74
2022/08/10 05:08:59;;;;;;;7.85;5.37;;;;;;;14.87;89.34;101824.83;1739626;81;26446;-74
2022/08/10 05:11:26;;;;;;;7.45;4.78;;;;;;;14.96;89.68;101834.52;1740242;81;25818;-74
2022/08/10 05:13:52;;;;;;;8.43;4.87;;;;;;;15.05;89.88;101832.57;1741834;81;25920;-74
2022/08/10 05:16:18;;;;;;;6.55;5.00;;;;;;;15.13;90.24;101821.17;1710456;82;25936;-75
2022/08/10 05:18:45;;;;;;;8.53;5.17;;;;;;;15.22;90.41;101823.27;1707665;82;27474;-74
2022/08/10 05:21:11;;;;;;;8.80;5.30;;;;;;;15.31;90.69;101831.05;1707369;82;25884;-74
2022/08/10 05:23:37;;;;;;;7.62;4.90;;;;;;;15.42;90.72;101832.44;1720102;82;25825;-74
2022/08/10 05:26:04;;;;;;;8.65;4.47;;;;;;;15.51;90.76;101835.39;1706409;81;25868;-74
2022/08/10 05:28:32;;;;;;;6.35;4.50;;;;;;;15.62;90.88;101838.13;1702818;82;26513;-74
2022/08/10 05:30:59;;;;;;;5.78;4.40;;;;;;;15.71;90.83;101833.78;1701659;82;27461;-74
2022/08/10 05:33:25;;;;;;;5.28;4.47;;;;;;;15.80;90.84;101836.67;1708614;82;26095;-73
2022/08/10 05:35:51;;;;;;;7.17;4.67;;;;;;;15.89;90.78;101838.73;1700167;82;25827;-75
2022/08/10 05:38:22;;;;;;;8.83;4.22;;;;;;;15.99;91.06;101840.64;1703316;82;25914;-75
2022/08/10 05:40:49;;;;;;;6.62;3.85;;;;;;;16.08;90.79;101838.14;1696990;82;26613;-74
2022/08/10 05:43:18;;;;;;;7.12;4.55;;;;;;;16.16;90.68;101840.70;1710692;82;27480;-73
2022/08/10 05:45:46;;;;;;;6.55;4.03;;;;;;;16.25;90.75;101842.27;1738067;81;25726;-74
2022/08/10 05:48:13;;;;;;;8.15;4.20;;;;;;;16.37;90.71;101844.75;1740837;81;25769;-75
2022/08/10 05:50:39;;;;;;;8.58;4.50;;;;;;;16.49;90.43;101840.98;1722426;82;25818;-74
2022/08/10 05:53:06;;;;;;;7.55;4.97;;;;;;;16.58;90.36;101843.91;1686273;83;25732;-75
2022/08/10 05:55:32;;;;;;;7.33;4.17;;;;;;;16.68;90.06;101849.84;1715541;82;27479;-75
2022/08/10 05:58:00;;;;;;;6.28;3.90;;;;;;;16.78;90.35;101843.56;1720783;82;25841;-75
2022/08/10 06:00:26;;;;;;;7.22;3.90;;;;;;;16.89;90.47;101851.14;1710779;82;25826;-75
2022/08/10 06:03:01;;;;;;;6.75;4.17;;;;;;;16.98;89.85;101846.72;1712263;83;25831;-73
2022/08/10 06:05:31;;;;;;;8.15;4.03;;;;;;;17.07;89.61;101851.45;1742440;80;25767;-75
2022/08/10 06:08:18;;;;;;;6.70;3.80;;;;;;;17.18;89.22;101846.00;1742391;81;30737;-74
2022/08/10 06:10:47;;;;;;;6.15;4.15;;;;;;;17.25;88.74;101849.08;1747371;81;26456;-75
2022/08/10 06:16:05;;;;;;;7.45;4.00;;;;;;;17.51;89.35;101853.28;1749040;81;26410;-74
2022/08/10 06:18:31;;;;;;;4.33;3.67;;;;;;;17.65;88.81;101845.55;1750171;81;25829;-75
2022/08/10 06:20:59;;;;;;;8.23;3.40;;;;;;;17.78;88.50;101849.33;1752627;81;28290;-74
2022/08/10 06:23:28;;;;;;;5.33;3.98;;;;;;;17.88;88.50;101851.16;1721465;81;25918;-74
2022/08/10 06:25:55;;;;;;;7.10;3.27;;;;;;;17.97;87.82;101848.04;1751062;81;25755;-74
2022/08/10 06:28:24;;;;;;;9.70;3.62;;;;;;;18.08;87.65;101845.24;1751523;81;25857;-74
2022/08/10 06:30:53;;;;;;;6.05;3.65;;;;;;;18.20;87.42;101851.72;1746846;81;26446;-74
2022/08/10 06:33:22;;;;;;;5.20;3.92;;;;;;;18.30;87.50;101852.17;1749200;81;27423;-74
2022/08/10 06:35:53;;;;;;;7.33;3.65;;;;;;;18.40;87.12;101853.95;1747456;81;25854;-75
2022/08/10 06:38:22;;;;;;;7.95;3.60;;;;;;;18.50;87.03;101848.97;1746820;81;25731;-74
2022/08/10 06:40:52;;;;;;;5.60;3.20;;;;;;;18.59;86.40;101847.73;1750890;81;26574;-74
2022/08/10 06:43:22;;;;;;;4.95;3.25;;;;;;;18.66;85.81;101851.28;1744021;81;25344;-74
2022/08/10 06:45:56;;;;;;;4.58;3.90;;;;;;;18.75;85.72;101845.96;1748073;81;27433;-74
2022/08/10 06:48:36;;;;;;;4.28;3.65;;;;;;;18.81;85.10;101844.27;1746349;81;25997;-74
2022/08/10 06:51:07;;;;;;;7.05;3.58;;;;;;;18.86;84.60;101839.87;1743936;81;25916;-74
2022/08/10 06:53:42;;;;;;;4.22;3.25;;;;;;;18.94;84.27;101841.55;1740433;81;25837;-75
2022/08/10 06:56:14;;;;;;;6.00;3.25;;;;;;;19.02;83.96;101838.59;1733244;81;25847;-75
2022/08/10 06:58:51;;;;;;;6.05;3.12;;;;;;;19.08;83.34;101838.59;1732234;81;27430;-76
2022/08/10 07:01:23;;;;;;;6.12;3.35;;;;;;;19.17;83.77;101838.67;1744175;81;26489;-75
2022/08/10 07:03:59;;;;;;;4.22;3.15;;;;;;;19.29;83.27;101836.12;1749949;80;25753;-74
2022/08/10 07:06:27;;;;;;;5.85;3.10;;;;;;;19.41;83.33;101833.61;1744626;81;26352;-75
2022/08/10 07:08:55;;;;;;;6.55;2.90;;;;;;;19.48;82.93;101829.00;1749855;80;25671;-74
2022/08/10 07:11:23;;;;;;;3.33;2.50;;;;;;;19.59;82.68;101833.77;1747789;81;27461;-75
2022/08/10 07:13:51;;;;;;;3.80;2.70;;;;;;;19.63;81.28;101833.64;1752994;80;25836;-74
2022/08/10 07:16:18;;;;;;;4.45;2.72;;;;;;;19.69;80.53;101839.05;1752047;80;25310;-75
2022/08/10 07:18:46;;;;;;;3.60;2.60;;;;;;;19.76;80.73;101832.22;1750573;80;25773;-75
2022/08/10 07:21:14;;;;;;;3.20;2.65;;;;;;;19.84;80.41;101839.59;1739753;81;26475;-74
2022/08/10 07:23:44;;;;;;;3.83;2.60;;;;;;;19.91;80.09;101834.09;1751713;79;28244;-74
2022/08/10 07:26:12;;;;;;;6.37;2.83;;;;;;;19.97;79.68;101829.16;1745727;81;25872;-74
2022/08/10 07:28:39;;;;;;;3.02;2.00;;;;;;;20.05;79.11;101834.34;1747633;80;25902;-74
2022/08/10 07:31:06;;;;;;;2.65;2.20;;;;;;;20.12;79.18;101835.14;1749029;81;25952;-75
2022/08/10 07:33:33;;;;;;;3.50;2.35;;;;;;;20.21;79.51;101842.55;1747815;80;25920;-74
2022/08/10 07:36:00;;;;;;;2.55;2.27;;;;;;;20.29;78.19;101841.75;1732909;81;27530;-75
2022/08/10 07:38:30;;;;;;;7.35;2.72;;;;;;;20.33;77.93;101836.17;1738809;81;25734;-74
2022/08/10 07:40:59;;;;;;;4.37;2.07;;;;;;;20.40;77.77;101834.76;1707015;82;25735;-74
2022/08/10 07:43:30;;;;;;;2.58;2.12;;;;;;;20.43;76.87;101835.14;1726122;81;26593;-74
2022/08/10 07:45:58;;;;;;;4.47;1.80;;;;;;;20.48;76.02;101839.92;1749714;81;25765;-75
2022/08/10 07:48:29;;;;;;;3.80;1.80;;;;;;;20.52;75.89;101834.34;1743099;81;27668;-74
2022/08/10 07:51:00;;;;;;;4.85;2.08;;;;;;;20.61;76.42;101831.13;1750591;81;25923;-74
2022/08/10 07:53:37;;;;;;;4.58;2.33;;;;;;;20.71;76.45;101833.33;1712030;82;25774;-74
2022/08/10 07:56:06;;;;;;;3.67;2.25;;;;;;;20.81;75.93;101840.45;1693816;82;26571;-75
2022/08/10 07:58:48;;;;;;;2.65;2.45;;;;;;;20.89;74.87;101836.63;1712864;82;25753;-75
2022/08/10 08:01:16;;;;;;;2.45;2.25;;;;;;;20.89;72.72;101842.07;1710059;82;27450;-74
2022/08/10 08:03:44;;;;;;;2.80;1.90;;;;;;;20.88;72.18;101839.03;1709119;82;25822;-75
2022/08/10 08:06:12;;;;;;;3.50;1.90;;;;;;;20.91;72.43;101841.31;1711624;82;25914;-74
2022/08/10 08:08:41;;;;;;;3.17;1.57;;;;;;;20.96;72.34;101836.84;1718023;82;25700;-74
2022/08/10 08:11:09;;;;;;;6.70;2.00;;;;;;;21.04;72.13;101840.67;1717833;82;26441;-74
2022/08/10 08:13:38;;;;;;;3.83;1.98;;;;;;;21.15;71.81;101837.75;1721703;81;27987;-74
2022/08/10 08:16:07;;;;;;;2.67;1.70;;;;;;;21.22;71.75;101831.16;1702974;82;25758;-74
2022/08/10 08:18:36;;;;;;;2.15;1.75;;;;;;;21.32;71.81;101835.54;1709075;82;25947;-74
2022/08/10 08:21:03;;;;;;;2.40;2.20;;;;;;;21.41;70.98;101823.80;1709450;82;25892;-75
2022/08/10 08:23:31;;;;;;;1.67;1.57;;;;;;;21.51;71.12;101828.20;1711721;82;26468;-75
2022/08/10 08:25:58;;;;;;;4.83;1.90;;;;;;;21.60;71.01;101831.45;1713930;82;28293;-74
2022/08/10 08:28:27;;;;;;;6.33;1.70;;;;;;;21.64;68.89;101829.93;1702007;82;26534;-74
2022/08/10 08:30:55;;;;;;;2.85;2.02;;;;;;;21.64;69.24;101825.84;1699733;82;25593;-75
2022/08/10 08:33:23;;;;;;;4.58;2.00;;;;;;;21.64;66.96;101832.09;1725900;81;25824;-75
2022/08/10 08:35:50;;;;;;;4.80;2.15;;;;;;;21.62;67.12;101830.13;1715843;82;25814;-75
2022/08/10 08:38:18;;;;;;;2.83;1.80;;;;;;;21.63;67.36;101818.18;1707749;82;27450;-75
2022/08/10 08:40:50;;;;;;;1.77;1.37;;;;;;;21.69;66.63;101824.59;1703221;82;25288;-75
2022/08/10 08:43:55;;;;;;;2.72;1.85;;;;;;;21.71;66.08;101820.58;1702760;82;26101;-75
2022/08/10 08:46:56;;;;;;;3.70;2.05;;;;;;;21.64;66.01;101819.83;1681958;83;25973;-76
2022/08/10 08:49:54;;;;;;;;;;;;;;;21.56;66.25;101820.16;1652800;85;25847;-76
2022/08/10 08:52:35;;;;;;;3.55;1.32;;;;;;;21.61;66.84;101814.85;1716502;82;28305;-75
2022/08/10 08:55:28;;;;;;;;;;;;;;;21.69;66.17;101814.53;1674224;82;25899;-76
2022/08/10 08:58:08;;;;;;;1.67;1.57;;;;;;;21.75;66.11;101819.05;1719747;82;26488;-75
2022/08/10 09:01:18;;;;;;;2.55;1.40;;;;;;;21.84;66.42;101820.44;1743179;81;25835;-75
2022/08/10 09:04:19;;;;;;;1.98;1.40;;;;;;;21.93;65.07;101811.39;1699772;82;26546;-75
2022/08/10 09:07:42;;;;;;;3.10;1.27;;;;;;;21.88;63.58;101812.61;1685170;83;27637;-75
2022/08/10 09:10:27;;;;;;;1.12;1.02;;;;;;;21.88;64.04;101808.52;1715128;82;43066;-75
2022/08/10 09:13:25;;;;;;;2.17;1.35;;;;;;;21.86;63.25;101806.55;1711569;82;26561;-74
2022/08/10 09:16:16;;;;;;;2.85;1.27;;;;;;;21.94;63.51;101800.23;1711540;82;25854;-75
2022/08/10 09:19:13;;;;;;;4.83;2.37;;;;;;;22.02;62.33;101801.82;1744588;81;26526;-75
2022/08/10 09:21:47;;;;;;;2.15;1.20;;;;;;;22.10;62.31;101800.11;1746952;80;27300;-75
2022/08/10 09:24:39;;;;;;;1.90;1.20;;;;;;;22.18;61.11;101801.98;1749884;79;25913;-75
2022/08/10 09:27:22;;;;;;;2.70;1.37;;;;;;;22.22;60.31;101798.23;1737364;80;26450;-75
2022/08/10 09:29:56;;;;;;;1.42;1.20;;;;;;;22.27;60.92;101802.47;1746439;80;25852;-75
2022/08/10 09:32:40;;;;;;;1.47;1.15;;;;;;;22.33;59.55;101797.43;1744341;80;25294;-75
2022/08/10 09:35:18;;;;;;;2.92;1.00;;;;;;;22.35;59.17;101795.30;1717394;81;27465;-75
2022/08/10 09:38:07;;;;;;;2.02;1.25;;;;;;;22.43;60.39;101786.78;1743164;81;25849;-75
2022/08/10 09:40:54;;;;;;;2.85;1.00;;;;;;;22.49;58.52;101802.73;1746693;81;25760;-75
2022/08/10 09:43:41;;;;;;;3.35;1.12;;;;;;;22.48;58.57;101794.23;1742962;80;25783;-76
2022/08/10 09:46:42;;;;;;;1.70;1.10;;;;;;;22.54;58.74;101787.30;1739603;81;25804;-76
2022/08/10 09:49:20;;;;;;;1.55;1.05;;;;;;;22.62;57.33;101792.99;1743324;81;27697;-76
2022/08/10 09:52:13;;;;;;;2.00;1.17;;;;;;;22.62;56.85;101795.19;1747355;81;25949;-76
2022/08/10 09:55:11;;;;;;;0.70;0.70;;;;;;;22.65;56.08;101788.40;1688986;81;25894;-77
2022/08/10 09:58:01;;;;;;;2.27;1.30;;;;;;;22.70;56.61;101781.70;1746687;80;25887;-77
2022/08/10 10:00:33;;;;;;;1.65;1.30;;;;;;;22.80;57.31;101784.66;1713118;82;26007;-77
2022/08/10 10:03:26;;;;;;;2.05;1.22;;;;;;;22.89;57.41;101777.77;1702471;82;27438;-77
2022/08/10 10:06:20;;;;;;;2.98;1.60;;;;;;;22.97;57.41;101774.66;1712579;82;25760;-77
2022/08/10 10:09:04;;;;;;;1.37;1.25;;;;;;;22.92;56.94;101783.58;1712850;82;25869;-78
2022/08/10 10:11:44;;;;;;;1.12;1.02;;;;;;;22.97;56.74;101777.39;1718448;82;25962;-78
2022/08/10 10:15:19;;;;;;;2.05;0.85;;;;;;;22.99;55.90;101769.25;1702109;82;26394;-76
2022/08/10 10:18:00;;;;;;;1.07;0.90;;;;;;;23.05;55.71;101774.84;1711528;82;28336;-77
2022/08/10 10:21:01;;;;;;;1.20;1.10;;;;;;;23.12;55.39;101774.19;1710460;82;26806;-77
2022/08/10 10:24:12;;;;;;;1.20;0.93;;;;;;;23.09;55.14;101766.45;1715411;82;32586;-78
2022/08/10 10:27:14;;;;;;;1.15;0.80;;;;;;;22.91;55.04;101771.52;1715954;82;26041;-78
2022/08/10 10:30:09;;;;;;;1.85;1.00;;;;;;;22.66;54.31;101770.43;1744519;81;25778;-78
2022/08/10 10:32:52;;;;;;;1.00;0.90;;;;;;;22.46;53.90;101769.07;1738495;81;28469;-81
2022/08/10 10:35:30;;;;;;;1.10;1.00;;;;;;;22.33;53.67;101765.20;1706985;82;26167;-79
2022/08/10 10:37:58;;;;;;;2.08;0.78;;;;;;;22.34;54.30;101767.72;1714513;82;25287;-80
2022/08/10 10:40:30;;;;;;;1.50;1.37;;;;;;;22.41;54.60;101756.68;1680521;83;26586;-78
2022/08/10 10:43:10;;;;;;;1.10;1.00;;;;;;;22.52;54.72;101759.40;1710653;82;26561;-78
2022/08/10 10:46:00;;;;;;;1.12;0.80;;;;;;;22.67;55.95;101755.69;1708077;82;28365;-77
2022/08/10 10:48:57;;;;;;;1.15;0.82;;;;;;;22.87;55.04;101753.95;1704538;82;26247;-75
2022/08/10 10:51:35;;;;;;;1.00;0.80;;;;;;;22.94;54.29;101751.93;1708349;82;26036;-77
2022/08/10 10:54:13;;;;;;;3.92;1.00;;;;;;;23.09;54.67;101744.06;1707884;82;26077;-79
2022/08/10 10:57:00;;;;;;;0.82;0.82;;;;;;;23.15;53.54;101744.98;1741541;80;25771;-76
2022/08/10 11:00:01;;;;;;;0.72;0.72;;;;;;;23.09;53.19;101733.12;1741449;81;27547;-79
2022/08/10 11:03:05;;;;;;;0.65;0.55;;;;;;;23.05;52.95;101731.11;1704780;81;25816;-76
2022/08/10 11:05:39;;;;;;;1.45;1.25;;;;;;;22.93;52.29;101734.70;1704451;82;25356;-77
2022/08/10 11:08:25;;;;;;;1.70;0.90;;;;;;;23.00;52.64;101725.00;1649481;83;25964;-79
2022/08/10 11:10:59;;;;;;;1.40;0.80;;;;;;;23.11;51.84;101717.31;1739806;81;25799;-79
2022/08/10 11:13:43;;;;;;;1.20;0.60;;;;;;;23.30;52.71;101724.79;1711950;82;27727;-78
2022/08/10 11:16:47;;;;;;;0.72;0.50;;;;;;;23.41;51.40;101723.95;1672856;83;26567;-78
2022/08/10 11:19:40;;;;;;;0.70;0.50;;;;;;;23.45;50.18;101721.02;1710110;82;26141;-76
2022/08/10 11:22:31;;;;;;;0.78;0.50;;;;;;;23.48;49.57;101721.34;1706040;82;26728;-77
2022/08/10 11:25:22;;;;;;;1.82;0.70;;;;;;;23.46;48.79;101728.97;1714396;82;26059;-77
2022/08/10 11:28:23;;;;;;;3.40;1.22;;;;;;;23.52;49.81;101725.81;1711436;82;28317;-77
2022/08/10 11:31:27;;;;;;;1.22;0.80;;;;;;;23.63;50.60;101718.91;1681605;84;25895;-78
2022/08/10 11:34:08;;;;;;;0.60;0.60;;;;;;;23.76;50.02;101713.66;1709972;82;26066;-77
2022/08/10 11:37:14;;;;;;;0.50;0.50;;;;;;;23.78;50.05;101711.50;1717883;82;25822;-76
2022/08/10 11:40:07;;;;;;;2.05;0.60;;;;;;;23.70;49.81;101714.11;1707331;82;26594;-76
2022/08/10 11:42:47;;;;;;;1.37;0.50;;;;;;;23.63;49.86;101709.89;1716772;82;27472;-76
2022/08/10 11:45:28;;;;;;;2.20;0.60;;;;;;;23.69;50.00;101711.63;1706065;82;26598;-83
2022/08/10 11:48:21;;;;;;;1.67;0.80;;;;;;;23.68;49.82;101709.42;1711233;82;25828;-77
2022/08/10 11:50:56;;;;;;;2.00;0.80;;;;;;;23.59;49.71;101709.53;1706220;82;26611;-79
2022/08/10 11:53:40;;;;;;;1.15;0.78;;;;;;;23.40;49.89;101701.23;1706244;82;25996;-78
2022/08/10 11:56:10;;;;;;;1.20;0.80;;;;;;;23.36;50.88;101693.77;1710038;82;27495;-76
2022/08/10 12:01:30;;;;;;;0.53;0.50;;;;;;;23.48;50.88;101689.09;1708700;82;25893;-77
2022/08/10 12:04:06;;;;;;;0.70;0.65;;;;;;;23.55;51.04;101688.38;1680610;82;25935;-77
2022/08/10 12:06:30;;;;;;;1.42;0.78;;;;;;;23.69;50.41;101697.95;1706699;82;26464;-77
2022/08/10 12:08:58;;;;;;;1.90;1.00;;;;;;;23.83;49.75;101692.97;1708540;82;27434;-77